NCAR-RAP Real-Time Weather Data

Output produced by METARs form (19 June 2019  12:03 UTC)
found at http://weather.rap.ucar.edu/surface/
 
KATY 191153Z AUTO 13003KT 10SM CLR 14/10 A2986 RMK AO2 SLP107 T01440100 10150 20128 55002
KATY 191053Z AUTO 09004KT 10SM CLR 14/09 A2985 RMK AO2 SLP103 T01390094
KATY 190953Z AUTO 06003KT 10SM CLR 14/09 A2984 RMK AO2 SLP100 T01390094
KATY 190853Z AUTO 07003KT 10SM CLR 14/09 A2987 RMK AO2 SLP109 T01390094 56016
KATY 190753Z AUTO 00000KT 10SM CLR 14/09 A2988 RMK AO2 SLP115 T01440094
KATY 190653Z AUTO 00000KT 10SM CLR 14/09 A2989 RMK AO2 SLP118 T01440094
KATY 190553Z AUTO 00000KT 10SM CLR 14/10 A2992 RMK AO2 SLP127 T01390100 10228 20139 402330078 55000
KATY 190453Z AUTO 00000KT 10SM CLR 16/10 A2991 RMK AO2 SLP125 T01610100
KATY 190353Z AUTO 00000KT 10SM FEW065 17/10 A2992 RMK AO2 SLP128 T01670100
KATY 190253Z AUTO 01003KT 10SM CLR 17/10 A2992 RMK AO2 SLP127 T01670100 53003
KATY 190153Z AUTO 36004KT 10SM CLR 19/11 A2991 RMK AO2 SLP125 T01940106
KATY 190053Z AUTO 03005KT 10SM FEW050 22/11 A2991 RMK AO2 SLP124 T02170106
KATY 182353Z AUTO 04005KT 10SM FEW050 SCT070 22/11 A2991 RMK AO2 SLP125 T02220111 10233 20206 56015
KATY 182253Z AUTO 32005KT 10SM CLR 23/11 A2992 RMK AO2 SLP128 T02330106
KATY 182153Z AUTO 02005KT 10SM SCT049 23/11 A2993 RMK AO2 SLP133 T02330106
KATY 182053Z AUTO 32009KT 10SM CLR 23/11 A2996 RMK AO2 SLP141 T02280106 56014
KATY 181953Z AUTO 30007KT 10SM FEW044 22/10 A2997 RMK AO2 SLP145 T02220100
KATY 181853Z AUTO 34007KT 10SM CLR 22/11 A2998 RMK AO2 SLP150 T02170111
KATY 181753Z AUTO 33007KT 310V020 10SM FEW041 21/12 A3000 RMK AO2 SLP155 T02110117 56013
KATY 181653Z AUTO 35006KT 10SM 20/11 A3001 RMK AO2 SLP160 T02000111 $
KATY 181553Z AUTO 19/11 A3002 RMK AO2 SLP164 T01890111 PWINO $
KATY 181527Z AUTO 35010G15KT 10SM SCT024 SCT031 18/11 A3003 RMK AO2 T01830111
KATY 181514Z AUTO VRB04KT 10SM BKN025 BKN030 BKN035 19/12 A3003 RMK AO2 T01890122